createdAt,value
2023-05-19T00:01:12.538Z,5.55
2023-05-19T00:03:54.167Z,8.75
2023-05-19T00:06:31.993Z,6.03
2023-05-19T00:09:05.607Z,7.30
2023-05-19T00:11:42.401Z,5.13
2023-05-19T00:14:18.579Z,5.95
2023-05-19T00:16:49.116Z,4.78
2023-05-19T00:19:19.268Z,7.15
2023-05-19T00:21:48.994Z,5.82
2023-05-19T00:24:20.504Z,6.72
2023-05-19T00:26:50.160Z,6.80
2023-05-19T00:29:27.805Z,6.95
2023-05-19T00:32:00.287Z,7.13
2023-05-19T00:34:30.090Z,6.32
2023-05-19T00:37:03.014Z,6.50
2023-05-19T00:39:43.421Z,7.07
2023-05-19T00:42:13.352Z,5.85
2023-05-19T00:44:52.809Z,8.40
2023-05-19T00:47:22.771Z,7.25
2023-05-19T00:49:56.267Z,7.82
2023-05-19T00:52:29.292Z,7.17
2023-05-19T00:54:58.963Z,6.68
2023-05-19T00:57:28.785Z,6.53
2023-05-19T00:59:58.625Z,8.07
2023-05-19T01:02:31.310Z,6.78
2023-05-19T01:05:03.062Z,7.07
2023-05-19T01:07:33.229Z,6.43
2023-05-19T01:10:06.457Z,7.18
2023-05-19T01:12:36.703Z,5.90
2023-05-19T01:15:07.148Z,6.43
2023-05-19T01:18:16.816Z,7.88
2023-05-19T01:21:00.919Z,6.78
2023-05-19T01:23:30.654Z,8.70
2023-05-19T01:26:17.648Z,6.25
2023-05-19T01:29:14.179Z,6.43
2023-05-19T01:31:45.051Z,6.97
2023-05-19T01:34:18.137Z,7.47
2023-05-19T01:36:54.009Z,4.20
2023-05-19T01:39:25.379Z,4.32
2023-05-19T01:41:55.217Z,5.28
2023-05-19T01:44:30.224Z,5.38
2023-05-19T01:46:59.976Z,5.25
2023-05-19T01:49:35.477Z,6.00
2023-05-19T01:52:05.447Z,5.05
2023-05-19T01:54:35.444Z,5.30
2023-05-19T01:57:49.992Z,6.43
2023-05-19T02:00:44.160Z,3.80
2023-05-19T02:03:28.853Z,3.92
2023-05-19T02:11:11.509Z,4.10
2023-05-19T02:13:46.480Z,4.50
2023-05-19T02:16:18.849Z,4.50
2023-05-19T02:18:49.646Z,5.22
2023-05-19T02:21:19.409Z,4.78
2023-05-19T02:23:49.940Z,13.73
2023-05-19T02:26:19.744Z,3.92
2023-05-19T02:28:53.352Z,4.35
2023-05-19T02:31:23.083Z,2.27
2023-05-19T02:33:52.791Z,4.25
2023-05-19T02:36:27.623Z,4.07
2023-05-19T02:39:06.577Z,5.05
2023-05-19T02:41:43.114Z,3.70
2023-05-19T02:44:15.890Z,6.63
2023-05-19T02:46:48.960Z,4.22
2023-05-19T02:49:25.249Z,3.70
2023-05-19T02:51:55.709Z,4.63
2023-05-19T02:54:28.624Z,3.55
2023-05-19T02:57:01.644Z,3.22
2023-05-19T02:59:31.583Z,4.13
2023-05-19T03:02:08.710Z,5.53
2023-05-19T03:04:43.181Z,3.63
2023-05-19T03:09:56.204Z,4.65
2023-05-19T03:12:42.303Z,3.75
2023-05-19T03:15:14.728Z,4.28
2023-05-19T03:17:47.419Z,4.70
2023-05-19T03:20:19.925Z,3.88
2023-05-19T03:22:49.883Z,4.97
2023-05-19T03:25:22.758Z,7.97
2023-05-19T03:28:01.281Z,4.18
2023-05-19T03:30:34.343Z,3.92
2023-05-19T03:33:07.394Z,4.10
2023-05-19T03:35:40.918Z,3.95
2023-05-19T03:38:10.590Z,3.40
2023-05-19T03:40:54.793Z,3.72
2023-05-19T03:43:30.644Z,6.20
2023-05-19T03:46:00.732Z,3.97
2023-05-19T03:48:32.745Z,3.95
2023-05-19T03:51:05.979Z,4.97
2023-05-19T03:53:35.821Z,4.18
2023-05-19T03:56:08.297Z,4.40
2023-05-19T03:58:41.096Z,3.95
2023-05-19T04:01:10.944Z,5.40
2023-05-19T04:03:43.614Z,4.90
2023-05-19T04:06:14.482Z,4.53
2023-05-19T04:08:45.861Z,5.35
2023-05-19T04:11:15.742Z,4.38
2023-05-19T04:13:46.247Z,3.85
2023-05-19T04:16:18.939Z,3.58
2023-05-19T04:18:48.689Z,4.82
2023-05-19T04:21:18.509Z,3.95
2023-05-19T04:23:48.331Z,5.65
2023-05-19T04:26:20.979Z,4.22
2023-05-19T04:28:51.059Z,4.90
2023-05-19T04:31:24.567Z,4.10
2023-05-19T04:33:55.097Z,3.08
2023-05-19T04:36:25.615Z,4.28
2023-05-19T04:38:56.707Z,5.95
2023-05-19T04:41:26.370Z,5.18
2023-05-19T04:43:56.187Z,5.03
2023-05-19T04:46:27.643Z,7.68
2023-05-19T04:48:58.706Z,5.43
2023-05-19T04:51:32.552Z,8.07
2023-05-19T04:54:03.114Z,5.32
2023-05-19T04:56:32.902Z,5.65
2023-05-19T04:59:02.909Z,4.50
2023-05-19T05:01:34.585Z,5.43
2023-05-19T05:04:07.200Z,5.65
2023-05-19T05:06:39.960Z,6.68
2023-05-19T05:09:09.683Z,4.35
2023-05-19T05:11:39.823Z,4.32
2023-05-19T05:14:09.858Z,5.57
2023-05-19T05:16:40.016Z,5.35
2023-05-19T05:19:12.247Z,3.95
2023-05-19T05:21:43.060Z,6.00
2023-05-19T05:24:13.741Z,5.78
2023-05-19T05:26:47.555Z,5.93
2023-05-19T05:29:17.359Z,5.15
2023-05-19T05:31:56.029Z,5.95
2023-05-19T05:34:25.781Z,5.93
2023-05-19T05:36:55.564Z,4.13
2023-05-19T05:39:25.254Z,5.15
2023-05-19T05:41:54.920Z,4.25
2023-05-19T05:44:24.620Z,8.98
2023-05-19T05:46:57.441Z,5.88
2023-05-19T05:49:27.463Z,4.28
2023-05-19T05:54:33.453Z,7.28
2023-05-19T05:57:07.069Z,6.93
2023-05-19T05:59:39.672Z,7.17
2023-05-19T06:02:11.810Z,4.95
2023-05-19T06:04:45.213Z,4.15
2023-05-19T06:07:24.216Z,4.85
2023-05-19T06:09:54.040Z,5.85
2023-05-19T06:12:24.618Z,9.00
2023-05-19T06:14:54.432Z,9.65
2023-05-19T06:17:24.144Z,5.38
2023-05-19T06:19:53.899Z,5.15
2023-05-19T06:22:32.920Z,6.05
2023-05-19T06:25:02.643Z,4.18
2023-05-19T06:27:44.763Z,6.70
2023-05-19T06:30:15.789Z,7.93
2023-05-19T06:32:45.800Z,6.18
2023-05-19T06:35:15.653Z,5.70
2023-05-19T06:37:48.069Z,6.18
2023-05-19T06:40:17.847Z,7.85
2023-05-19T06:42:47.600Z,9.43
2023-05-19T06:45:17.467Z,8.20
2023-05-19T06:47:47.236Z,6.72
2023-05-19T06:50:17.240Z,5.30
2023-05-19T06:52:48.583Z,7.07
2023-05-19T06:55:18.450Z,6.18
2023-05-19T06:57:51.066Z,7.22
2023-05-19T07:00:24.597Z,5.07
2023-05-19T07:02:54.745Z,5.27
2023-05-19T07:05:24.765Z,7.65
2023-05-19T07:07:56.858Z,6.63
2023-05-19T07:10:36.691Z,9.48
2023-05-19T07:13:06.562Z,6.13
2023-05-19T07:15:42.605Z,5.53
2023-05-19T07:18:12.555Z,6.88
2023-05-19T07:20:42.411Z,5.22
2023-05-19T07:23:16.048Z,5.50
2023-05-19T07:25:47.184Z,5.28
2023-05-19T07:28:22.087Z,5.32
2023-05-19T07:30:54.840Z,5.43
2023-05-19T07:33:24.711Z,7.43
2023-05-19T07:35:56.993Z,4.72
2023-05-19T07:38:35.996Z,4.43
2023-05-19T07:41:06.358Z,3.72
2023-05-19T07:43:39.665Z,6.68
2023-05-19T07:46:13.780Z,6.38
2023-05-19T07:48:45.597Z,4.32
2023-05-19T07:51:16.157Z,5.35
2023-05-19T07:53:48.243Z,4.47
2023-05-19T07:56:20.666Z,4.55
2023-05-19T07:58:50.401Z,4.10
2023-05-19T08:01:23.023Z,4.43
2023-05-19T08:03:55.752Z,3.92
2023-05-19T08:06:26.833Z,4.47
2023-05-19T08:08:59.174Z,3.42
2023-05-19T08:11:28.914Z,5.65
2023-05-19T08:13:59.019Z,4.13
2023-05-19T08:16:36.557Z,4.22
2023-05-19T08:19:08.428Z,4.10
2023-05-19T08:21:38.589Z,3.47
2023-05-19T08:24:08.548Z,3.63
2023-05-19T08:26:38.384Z,7.90
2023-05-19T08:29:08.062Z,3.53
2023-05-19T08:31:38.178Z,3.65
2023-05-19T08:34:11.223Z,4.57
2023-05-19T08:36:42.360Z,5.35
2023-05-19T08:39:15.299Z,5.13
2023-05-19T08:41:45.009Z,3.83
2023-05-19T08:44:16.107Z,4.45
2023-05-19T08:46:46.888Z,4.25
2023-05-19T08:49:18.349Z,4.35
2023-05-19T08:51:53.231Z,4.07
2023-05-19T08:54:24.043Z,5.57
2023-05-19T08:56:54.020Z,4.13
2023-05-19T08:59:27.220Z,3.60
2023-05-19T09:01:57.104Z,4.72
2023-05-19T09:04:30.329Z,4.03
2023-05-19T09:09:33.956Z,3.83
2023-05-19T09:12:03.756Z,3.63
2023-05-19T09:14:33.663Z,4.70
2023-05-19T09:17:04.198Z,4.18
2023-05-19T09:19:34.562Z,4.28
2023-05-19T09:22:08.273Z,3.40
2023-05-19T09:24:38.030Z,3.20
2023-05-19T09:27:07.861Z,3.65
2023-05-19T09:29:37.547Z,3.47
2023-05-19T09:32:07.692Z,4.30
2023-05-19T09:34:37.660Z,3.55
2023-05-19T09:37:07.584Z,3.28
2023-05-19T09:39:37.368Z,4.07
2023-05-19T09:42:08.639Z,4.00
2023-05-19T09:44:40.920Z,4.35
2023-05-19T09:47:15.807Z,3.30
2023-05-19T09:49:49.429Z,4.47
2023-05-19T09:52:19.778Z,4.43
2023-05-19T09:54:52.841Z,3.30
2023-05-19T09:57:30.988Z,3.10
2023-05-19T10:00:01.253Z,4.13
2023-05-19T10:02:31.276Z,3.47
2023-05-19T10:05:01.125Z,3.53
2023-05-19T10:07:30.996Z,3.15
2023-05-19T10:10:00.821Z,5.18
2023-05-19T10:12:30.618Z,3.40
2023-05-19T10:15:00.935Z,3.35
2023-05-19T10:17:30.832Z,3.75
2023-05-19T10:20:01.337Z,4.35
2023-05-19T10:22:37.138Z,4.65
2023-05-19T10:25:07.775Z,3.85
2023-05-19T10:27:47.728Z,4.32
2023-05-19T10:30:22.922Z,3.17
2023-05-19T10:32:53.618Z,3.38
2023-05-19T10:35:32.802Z,3.22
2023-05-19T10:38:30.286Z,7.70
2023-05-19T10:41:09.955Z,4.70
2023-05-19T10:43:58.339Z,3.53
2023-05-19T10:46:34.924Z,3.80
2023-05-19T10:49:04.637Z,3.97
2023-05-19T10:51:34.757Z,3.15
2023-05-19T10:54:05.562Z,3.17
2023-05-19T10:56:37.579Z,5.55
2023-05-19T10:59:07.467Z,4.32
2023-05-19T11:01:39.858Z,3.58
2023-05-19T11:04:15.512Z,4.18
2023-05-19T11:06:53.464Z,3.45
2023-05-19T11:09:34.163Z,3.60
2023-05-19T11:14:51.591Z,3.92
2023-05-19T11:17:25.311Z,3.15
2023-05-19T11:19:57.408Z,2.97
2023-05-19T11:22:31.096Z,3.05
2023-05-19T11:25:05.515Z,2.72
2023-05-19T11:30:24.035Z,2.45
2023-05-19T11:32:55.134Z,2.83
2023-05-19T11:35:25.878Z,3.15
2023-05-19T11:37:56.767Z,2.92
2023-05-19T11:40:37.013Z,3.55
2023-05-19T11:43:06.685Z,2.88
2023-05-19T11:45:57.380Z,2.75
2023-05-19T11:48:42.778Z,2.42
2023-05-19T11:51:12.481Z,3.22
2023-05-19T11:53:42.228Z,2.55
2023-05-19T11:56:12.611Z,3.28
2023-05-19T11:59:05.156Z,2.50
2023-05-19T12:01:36.097Z,2.85
2023-05-19T12:04:15.467Z,2.28
2023-05-19T12:06:45.261Z,2.88
2023-05-19T12:09:14.976Z,2.92
2023-05-19T12:11:47.357Z,4.03
2023-05-19T12:14:17.540Z,4.32
2023-05-19T12:16:49.948Z,2.63
2023-05-19T12:19:22.604Z,3.70
2023-05-19T12:21:53.199Z,3.40
2023-05-19T12:24:38.501Z,3.10
2023-05-19T12:27:24.677Z,2.97
2023-05-19T12:29:55.510Z,2.92
2023-05-19T12:32:31.108Z,2.75
2023-05-19T12:35:01.894Z,3.53
2023-05-19T12:37:31.760Z,3.13
2023-05-19T12:40:02.160Z,3.03
2023-05-19T12:42:39.809Z,2.97
2023-05-19T12:45:10.039Z,3.22
2023-05-19T12:47:42.407Z,3.00
2023-05-19T12:50:33.213Z,2.75
2023-05-19T12:53:03.094Z,3.55
2023-05-19T12:55:33.097Z,3.47
2023-05-19T12:58:15.359Z,2.33
2023-05-19T13:00:49.477Z,3.60
2023-05-19T13:03:21.244Z,2.90
2023-05-19T13:05:52.554Z,2.70
2023-05-19T13:08:23.609Z,2.80
2023-05-19T13:10:53.335Z,3.03
2023-05-19T13:13:23.577Z,3.35
2023-05-19T13:15:53.670Z,2.72
2023-05-19T13:18:23.345Z,3.20
2023-05-19T13:20:54.629Z,3.00
2023-05-19T13:23:27.854Z,3.00
2023-05-19T13:26:00.216Z,3.25
2023-05-19T13:28:29.996Z,3.40
2023-05-19T13:30:59.800Z,2.83
2023-05-19T13:33:29.825Z,3.38
2023-05-19T13:35:59.513Z,3.83
2023-05-19T13:38:31.907Z,3.53
2023-05-19T13:41:01.695Z,3.10
2023-05-19T13:43:34.268Z,3.17
2023-05-19T13:46:04.066Z,3.55
2023-05-19T13:48:33.793Z,3.42
2023-05-19T13:51:04.043Z,3.28
2023-05-19T13:53:39.141Z,2.83
2023-05-19T13:56:23.975Z,3.17
2023-05-19T13:58:54.509Z,3.58
2023-05-19T14:01:24.176Z,3.92
2023-05-19T14:03:54.062Z,3.42
2023-05-19T14:06:23.854Z,3.65
2023-05-19T14:08:53.542Z,3.28
2023-05-19T14:11:28.877Z,3.28
2023-05-19T14:13:58.997Z,3.30
2023-05-19T14:16:30.218Z,3.30
2023-05-19T14:19:00.439Z,3.15
2023-05-19T14:21:30.109Z,3.83
2023-05-19T14:23:59.847Z,3.30
2023-05-19T14:26:29.796Z,3.00
2023-05-19T14:28:59.677Z,3.83
2023-05-19T14:31:29.736Z,3.83
2023-05-19T14:33:59.792Z,2.63
2023-05-19T14:36:29.462Z,3.47
2023-05-19T14:38:59.164Z,3.72
2023-05-19T14:41:30.520Z,3.35
2023-05-19T14:44:00.198Z,3.90
2023-05-19T14:46:29.852Z,3.83
2023-05-19T14:48:59.523Z,3.60
2023-05-19T14:51:32.036Z,3.10
2023-05-19T14:54:02.763Z,4.00
2023-05-19T14:56:32.626Z,4.63
2023-05-19T14:59:02.379Z,3.35
2023-05-19T15:01:32.687Z,4.13
2023-05-19T15:04:05.456Z,4.28
2023-05-19T15:06:58.195Z,3.00
2023-05-19T15:09:38.727Z,3.30
2023-05-19T15:12:08.947Z,2.92
2023-05-19T15:14:38.622Z,4.85
2023-05-19T15:17:08.479Z,3.20
2023-05-19T15:19:38.196Z,3.50
2023-05-19T15:22:11.411Z,3.63
2023-05-19T15:24:42.742Z,3.92
2023-05-19T15:27:15.199Z,3.20
2023-05-19T15:29:47.600Z,4.05
2023-05-19T15:32:16.702Z,3.78
2023-05-19T15:34:46.534Z,3.65
2023-05-19T15:37:16.496Z,3.78
2023-05-19T15:39:46.176Z,3.80
2023-05-19T15:42:15.843Z,3.72
2023-05-19T15:44:47.946Z,5.43
2023-05-19T15:47:17.709Z,3.70
2023-05-19T15:49:53.857Z,3.10
2023-05-19T15:52:26.271Z,3.65
2023-05-19T15:54:56.808Z,2.90
2023-05-19T15:57:26.829Z,4.28
2023-05-19T15:59:56.892Z,3.72
2023-05-19T16:02:27.058Z,3.55
2023-05-19T16:04:56.793Z,3.85
2023-05-19T16:07:26.434Z,5.20
2023-05-19T16:10:15.747Z,3.35
2023-05-19T16:12:48.861Z,3.75
2023-05-19T16:15:18.611Z,4.03
2023-05-19T16:17:48.307Z,3.70
2023-05-19T16:20:22.749Z,3.50
2023-05-19T16:22:52.447Z,3.60
2023-05-19T16:25:22.333Z,4.00
2023-05-19T16:27:52.397Z,4.10
2023-05-19T16:30:26.027Z,4.68
2023-05-19T16:32:56.313Z,3.93
2023-05-19T16:35:26.078Z,4.00
2023-05-19T16:37:55.801Z,4.30
2023-05-19T16:40:30.951Z,5.10
2023-05-19T16:43:00.854Z,5.65
2023-05-19T16:45:30.644Z,3.80
2023-05-19T16:48:02.907Z,4.40
2023-05-19T16:50:33.239Z,3.80
2023-05-19T16:53:03.306Z,6.47
2023-05-19T16:55:48.818Z,4.72
2023-05-19T16:58:18.489Z,4.35
2023-05-19T17:00:50.836Z,3.72
2023-05-19T17:03:20.906Z,4.00
2023-05-19T17:05:50.951Z,4.93
2023-05-19T17:08:23.345Z,4.07
2023-05-19T17:10:53.399Z,4.22
2023-05-19T17:13:23.138Z,4.13
2023-05-19T17:15:56.935Z,5.68
2023-05-19T17:18:29.686Z,4.22
2023-05-19T17:21:00.875Z,4.15
2023-05-19T17:23:47.756Z,4.93
2023-05-19T17:26:21.054Z,3.40
2023-05-19T17:28:51.127Z,4.43
2023-05-19T17:31:23.554Z,4.70
2023-05-19T17:33:53.417Z,3.85
2023-05-19T17:36:26.166Z,4.93
2023-05-19T17:38:55.763Z,5.38
2023-05-19T17:41:25.564Z,4.40
2023-05-19T17:43:55.221Z,4.30
2023-05-19T17:46:24.941Z,5.05
2023-05-19T17:48:54.693Z,4.75
2023-05-19T17:51:24.575Z,4.40
2023-05-19T17:53:54.574Z,4.40
2023-05-19T17:56:30.807Z,4.30
2023-05-19T17:59:00.788Z,4.80
2023-05-19T18:01:30.742Z,4.07
2023-05-19T18:04:20.447Z,4.05
2023-05-19T18:06:50.660Z,5.53
2023-05-19T18:09:27.158Z,5.40
2023-05-19T18:11:58.775Z,4.00
2023-05-19T18:14:31.245Z,4.43
2023-05-19T18:17:02.735Z,4.65
2023-05-19T18:19:32.433Z,4.47
2023-05-19T18:22:04.911Z,4.50
2023-05-19T18:24:34.609Z,5.85
2023-05-19T18:27:04.834Z,5.75
2023-05-19T18:29:36.375Z,4.88
2023-05-19T18:32:06.292Z,4.65
2023-05-19T18:34:36.151Z,4.05
2023-05-19T18:37:05.917Z,5.68
2023-05-19T18:39:35.677Z,5.35
2023-05-19T18:42:20.464Z,3.80
2023-05-19T18:47:24.307Z,3.90
2023-05-19T18:49:56.653Z,4.85
2023-05-19T18:52:28.185Z,4.28
2023-05-19T18:54:58.049Z,4.82
2023-05-19T18:57:28.051Z,4.20
2023-05-19T19:00:08.000Z,5.05
2023-05-19T19:02:37.871Z,5.55
2023-05-19T19:05:11.083Z,5.05
2023-05-19T19:07:44.708Z,5.63
2023-05-19T19:10:15.070Z,5.43
2023-05-19T19:13:00.897Z,5.32
2023-05-19T19:15:39.339Z,5.30
2023-05-19T19:18:12.175Z,5.35
2023-05-19T19:20:41.971Z,4.50
2023-05-19T19:23:14.328Z,6.55
2023-05-19T19:25:44.030Z,5.05
2023-05-19T19:28:13.681Z,4.93
2023-05-19T19:30:43.391Z,4.35
2023-05-19T19:33:13.487Z,4.90
2023-05-19T19:35:45.680Z,5.78
2023-05-19T19:38:15.748Z,4.70
2023-05-19T19:40:45.422Z,4.65
2023-05-19T19:43:15.074Z,5.65
2023-05-19T19:45:44.953Z,4.40
2023-05-19T19:48:34.325Z,4.53
2023-05-19T19:51:04.008Z,4.70
2023-05-19T19:53:36.880Z,6.05
2023-05-19T19:56:07.760Z,5.22
2023-05-19T19:58:38.506Z,5.22
2023-05-19T20:01:09.461Z,5.63
2023-05-19T20:03:39.569Z,5.32
2023-05-19T20:06:09.524Z,6.15
2023-05-19T20:08:39.335Z,5.10
2023-05-19T20:11:31.434Z,6.32
2023-05-19T20:14:01.144Z,5.07
2023-05-19T20:16:30.966Z,7.20
2023-05-19T20:19:00.769Z,5.93
2023-05-19T20:21:30.467Z,5.55
2023-05-19T20:24:00.353Z,6.80
2023-05-19T20:26:49.698Z,6.15
2023-05-19T20:29:19.792Z,6.05
2023-05-19T20:31:49.523Z,8.35
2023-05-19T20:34:19.215Z,5.65
2023-05-19T20:36:50.496Z,5.30
2023-05-19T20:39:22.864Z,6.72
2023-05-19T20:41:52.560Z,5.63
2023-05-19T20:44:22.250Z,6.68
2023-05-19T20:46:53.055Z,5.35
2023-05-19T20:49:25.924Z,5.32
2023-05-19T20:51:55.864Z,6.15
2023-05-19T20:54:25.522Z,6.03
2023-05-19T20:56:55.172Z,6.32
2023-05-19T20:59:24.794Z,5.70
2023-05-19T21:01:54.508Z,7.75
2023-05-19T21:04:43.986Z,7.43
2023-05-19T21:07:17.114Z,5.88
2023-05-19T21:09:49.535Z,6.95
2023-05-19T21:12:21.236Z,6.53
2023-05-19T21:14:51.567Z,7.53
2023-05-19T21:17:22.705Z,6.95
2023-05-19T21:20:02.471Z,7.15
2023-05-19T21:22:37.137Z,7.35
2023-05-19T21:25:10.384Z,7.63
2023-05-19T21:27:41.099Z,7.10
2023-05-19T21:30:11.285Z,9.63
2023-05-19T21:32:43.802Z,7.07
2023-05-19T21:35:13.567Z,7.85
2023-05-19T21:37:43.256Z,8.73
2023-05-19T21:40:13.391Z,9.32
2023-05-19T21:42:43.068Z,9.90
2023-05-19T21:45:13.229Z,8.93
2023-05-19T21:47:42.890Z,8.18
2023-05-19T21:50:17.120Z,7.53
2023-05-19T21:52:50.129Z,7.77
2023-05-19T21:55:19.803Z,7.25
2023-05-19T21:57:49.602Z,8.80
2023-05-19T22:00:19.485Z,9.57
2023-05-19T22:02:49.297Z,8.05
2023-05-19T22:05:19.217Z,8.02
2023-05-19T22:07:49.695Z,8.43
2023-05-19T22:10:19.400Z,7.93
2023-05-19T22:12:49.096Z,7.97
2023-05-19T22:15:20.146Z,7.38
2023-05-19T22:17:49.844Z,6.57
2023-05-19T22:20:19.537Z,8.00
2023-05-19T22:22:49.602Z,7.32
2023-05-19T22:25:25.869Z,7.38
2023-05-19T22:27:56.381Z,8.88
2023-05-19T22:30:26.561Z,8.50
2023-05-19T22:32:57.134Z,7.80
2023-05-19T22:35:29.795Z,9.90
2023-05-19T22:38:02.478Z,6.93
2023-05-19T22:40:35.076Z,7.20
2023-05-19T22:43:07.526Z,9.77
2023-05-19T22:45:54.252Z,8.18
2023-05-19T22:48:26.723Z,7.43
2023-05-19T22:50:56.545Z,8.25
2023-05-19T22:53:26.326Z,7.00
2023-05-19T22:55:56.102Z,7.68
2023-05-19T22:58:28.632Z,8.30
2023-05-19T23:01:01.555Z,9.57
2023-05-19T23:03:31.337Z,7.65
2023-05-19T23:06:00.976Z,8.73
2023-05-19T23:08:30.667Z,8.85
2023-05-19T23:11:03.852Z,8.32
2023-05-19T23:13:33.723Z,7.85
2023-05-19T23:16:04.237Z,7.93
2023-05-19T23:18:34.114Z,9.13
2023-05-19T23:21:03.732Z,8.80
2023-05-19T23:23:49.595Z,7.53
2023-05-19T23:26:21.798Z,8.52
2023-05-19T23:28:52.099Z,7.88
2023-05-19T23:31:24.566Z,7.30
2023-05-19T23:33:54.797Z,10.10
2023-05-19T23:36:26.104Z,9.00
2023-05-19T23:39:02.768Z,8.70
2023-05-19T23:41:32.990Z,8.38
2023-05-19T23:44:02.843Z,9.70
2023-05-19T23:46:32.658Z,9.07
2023-05-19T23:49:02.498Z,9.38
2023-05-19T23:51:32.849Z,9.85
2023-05-19T23:54:02.575Z,8.05
2023-05-19T23:56:32.335Z,9.68
2023-05-19T23:59:02.404Z,8.20
